createdAt,value
2018-04-10T00:00:16.486Z,12.50
2018-04-10T00:02:43.997Z,12.50
2018-04-10T00:05:12.489Z,12.50
2018-04-10T00:07:39.985Z,12.40
2018-04-10T00:10:08.266Z,12.50
2018-04-10T00:12:36.544Z,12.40
2018-04-10T00:15:04.853Z,12.40
2018-04-10T00:17:32.361Z,12.30
2018-04-10T00:19:59.861Z,12.30
2018-04-10T00:22:27.394Z,12.30
2018-04-10T00:24:54.974Z,12.30
2018-04-10T00:27:23.348Z,12.20
2018-04-10T00:29:50.882Z,12.10
2018-04-10T00:32:18.403Z,12.20
2018-04-10T00:34:45.893Z,12.10
2018-04-10T00:37:13.397Z,12.10
2018-04-10T00:39:40.935Z,12.00
2018-04-10T00:42:09.202Z,12.00
2018-04-10T00:44:36.722Z,12.00
2018-04-10T00:47:04.239Z,12.00
2018-04-10T00:49:32.539Z,11.90
2018-04-10T00:52:00.059Z,11.80
2018-04-10T00:54:27.560Z,11.90
2018-04-10T00:56:55.091Z,11.90
2018-04-10T00:59:23.361Z,11.80
2018-04-10T01:01:51.642Z,11.80
2018-04-10T01:04:19.928Z,11.80
2018-04-10T01:06:48.200Z,11.80
2018-04-10T01:09:16.494Z,11.80
2018-04-10T01:11:43.999Z,11.70
2018-04-10T01:14:11.525Z,11.80
2018-04-10T01:16:39.293Z,11.70
2018-04-10T01:19:06.797Z,11.80
2018-04-10T01:21:34.340Z,11.80
2018-04-10T01:24:01.834Z,11.80
2018-04-10T01:26:29.365Z,11.80
2018-04-10T01:28:56.870Z,11.80
2018-04-10T01:31:25.131Z,11.80
2018-04-10T01:33:53.410Z,11.80
2018-04-10T01:36:21.665Z,11.80
2018-04-10T01:38:49.181Z,11.60
2018-04-10T01:41:16.724Z,11.70
2018-04-10T01:43:44.243Z,11.70
2018-04-10T01:46:11.777Z,11.70
2018-04-10T01:48:39.275Z,11.70
2018-04-10T01:51:06.792Z,11.60
2018-04-10T01:53:34.298Z,11.70
2018-04-10T01:56:01.809Z,11.70
2018-04-10T01:58:29.324Z,11.70
2018-04-10T02:00:56.822Z,11.80
2018-04-10T02:03:24.357Z,11.80
2018-04-10T02:05:51.849Z,11.80
2018-04-10T02:08:19.442Z,11.80
2018-04-10T02:10:46.920Z,11.80
2018-04-10T02:13:32.660Z,11.90
2018-04-10T02:16:05.942Z,11.80
2018-04-10T02:18:39.997Z,12.00
2018-04-10T02:21:07.517Z,11.90
2018-04-10T02:23:35.010Z,11.90
2018-04-10T02:26:02.548Z,12.00
2018-04-10T02:28:30.043Z,12.00
2018-04-10T02:30:57.553Z,12.10
2018-04-10T02:33:25.113Z,12.10
2018-04-10T02:35:52.626Z,12.10
2018-04-10T02:38:20.143Z,12.10
2018-04-10T02:40:47.638Z,12.10
2018-04-10T02:43:15.170Z,12.10
2018-04-10T02:45:42.665Z,12.00
2018-04-10T02:48:10.154Z,12.00
2018-04-10T02:50:37.678Z,12.00
2018-04-10T02:53:05.166Z,12.00
2018-04-10T02:55:32.704Z,12.00
2018-04-10T02:58:00.970Z,12.00
2018-04-10T03:00:28.487Z,11.90
2018-04-10T03:02:56.388Z,12.00
2018-04-10T03:05:23.914Z,12.10
2018-04-10T03:07:51.411Z,12.10
2018-04-10T03:10:18.927Z,12.10
2018-04-10T03:12:46.441Z,12.10
2018-04-10T03:15:13.929Z,12.10
2018-04-10T03:17:41.472Z,12.10
2018-04-10T03:20:09.724Z,12.10
2018-04-10T03:22:37.249Z,12.00
2018-04-10T03:25:04.744Z,12.00
2018-04-10T03:27:32.245Z,11.80
2018-04-10T03:29:59.761Z,11.60
2018-04-10T03:32:27.261Z,11.70
2018-04-10T03:34:54.778Z,11.80
2018-04-10T03:37:22.278Z,11.80
2018-04-10T03:39:49.795Z,11.70
2018-04-10T03:42:17.302Z,11.60
2018-04-10T03:44:44.806Z,11.60
2018-04-10T03:47:12.313Z,11.50
2018-04-10T03:49:40.609Z,11.40
2018-04-10T03:52:08.117Z,11.30
2018-04-10T03:54:35.613Z,11.10
2018-04-10T03:57:03.105Z,10.90
2018-04-10T03:59:30.630Z,10.80
2018-04-10T04:01:58.162Z,10.90
2018-04-10T04:04:25.673Z,10.90
2018-04-10T04:06:53.165Z,11.00
2018-04-10T04:09:20.660Z,11.10
2018-04-10T04:11:48.940Z,10.90
2018-04-10T04:14:17.213Z,10.80
2018-04-10T04:16:57.310Z,10.70
2018-04-10T04:19:36.853Z,10.60
2018-04-10T04:22:16.080Z,10.60
2018-04-10T04:24:43.572Z,10.60
2018-04-10T04:27:11.070Z,10.60
2018-04-10T04:29:38.597Z,10.70
2018-04-10T04:32:06.100Z,10.70
2018-04-10T04:34:33.621Z,10.70
2018-04-10T04:37:01.118Z,10.70
2018-04-10T04:39:28.621Z,10.60
2018-04-10T04:41:56.139Z,10.60
2018-04-10T04:44:23.654Z,10.60
2018-04-10T04:46:51.179Z,10.60
2018-04-10T04:49:18.664Z,10.70
2018-04-10T04:51:46.161Z,10.70
2018-04-10T04:54:13.690Z,10.90
2018-04-10T04:56:41.185Z,11.00
2018-04-10T04:59:09.051Z,11.10
2018-04-10T05:01:36.545Z,11.10
2018-04-10T05:04:04.277Z,11.10
2018-04-10T05:06:31.991Z,11.20
2018-04-10T05:08:59.486Z,11.20
2018-04-10T05:11:27.765Z,11.20
2018-04-10T05:13:56.021Z,11.20
2018-04-10T05:16:23.753Z,11.10
2018-04-10T05:18:51.261Z,11.20
2018-04-10T05:21:19.530Z,11.30
2018-04-10T05:23:47.056Z,11.20
2018-04-10T05:26:14.554Z,11.30
2018-04-10T05:28:42.889Z,11.40
2018-04-10T05:31:10.404Z,11.30
2018-04-10T05:33:38.660Z,11.60
2018-04-10T05:36:06.169Z,11.50
2018-04-10T05:38:33.674Z,11.60
2018-04-10T05:41:01.172Z,11.60
2018-04-10T05:43:28.685Z,11.70
2018-04-10T05:45:56.194Z,11.80
2018-04-10T05:48:23.705Z,11.90
2018-04-10T05:50:51.229Z,12.00
2018-04-10T05:53:18.726Z,12.10
2018-04-10T05:55:46.241Z,12.10
2018-04-10T05:58:13.742Z,12.10
2018-04-10T06:00:41.266Z,12.20
2018-04-10T06:03:08.753Z,12.30
2018-04-10T06:05:36.249Z,12.40
2018-04-10T06:08:04.532Z,12.50
2018-04-10T06:10:32.787Z,12.80
2018-04-10T06:13:00.310Z,12.70
2018-04-10T06:15:27.805Z,12.90
2018-04-10T06:17:55.289Z,13.00
2018-04-10T06:20:22.911Z,12.90
2018-04-10T06:22:50.409Z,12.90
2018-04-10T06:25:17.929Z,13.00
2018-04-10T06:27:45.419Z,13.00
2018-04-10T06:30:13.900Z,13.20
2018-04-10T06:32:41.421Z,13.10
2018-04-10T06:35:08.913Z,13.00
2018-04-10T06:37:37.268Z,13.20
2018-04-10T06:40:04.761Z,13.10
2018-04-10T06:42:33.043Z,13.40
2018-04-10T06:45:01.306Z,13.50
2018-04-10T06:47:29.573Z,13.50
2018-04-10T06:49:57.081Z,13.40
2018-04-10T06:52:24.577Z,13.50
2018-04-10T06:54:52.094Z,13.70
2018-04-10T06:57:19.596Z,13.70
2018-04-10T06:59:47.092Z,13.70
2018-04-10T07:02:15.410Z,13.60
2018-04-10T07:04:42.930Z,13.50
2018-04-10T07:07:11.219Z,13.80
2018-04-10T07:09:38.733Z,13.70
2018-04-10T07:12:06.243Z,13.90
2018-04-10T07:14:33.773Z,13.90
2018-04-10T07:17:02.053Z,13.90
2018-04-10T07:19:30.333Z,14.10
2018-04-10T07:21:58.602Z,14.10
2018-04-10T07:24:26.877Z,14.10
2018-04-10T07:26:55.161Z,14.10
2018-04-10T07:29:23.439Z,14.20
2018-04-10T07:31:51.728Z,13.90
2018-04-10T07:34:20.007Z,13.90
2018-04-10T07:36:48.266Z,13.80
2018-04-10T07:39:16.549Z,13.80
2018-04-10T07:41:44.817Z,13.80
2018-04-10T07:44:12.323Z,13.70
2018-04-10T07:46:39.819Z,13.80
2018-04-10T07:49:07.340Z,13.90
2018-04-10T07:51:34.841Z,13.80
2018-04-10T07:54:02.341Z,14.10
2018-04-10T07:56:29.940Z,14.40
2018-04-10T07:58:57.478Z,14.50
2018-04-10T08:01:24.986Z,14.10
2018-04-10T08:03:52.704Z,14.10
2018-04-10T08:06:20.222Z,14.20
2018-04-10T08:08:48.485Z,14.30
2018-04-10T08:11:15.985Z,14.20
2018-04-10T08:13:43.501Z,14.30
2018-04-10T08:16:10.994Z,14.50
2018-04-10T08:18:39.285Z,15.00
2018-04-10T08:21:06.821Z,14.90
2018-04-10T08:23:35.114Z,15.00
2018-04-10T08:26:02.610Z,14.90
2018-04-10T08:28:30.133Z,15.00
2018-04-10T08:30:57.646Z,14.90
2018-04-10T08:33:25.171Z,14.80
2018-04-10T08:35:52.703Z,14.60
2018-04-10T08:38:20.978Z,14.60
2018-04-10T08:40:49.272Z,14.40
2018-04-10T08:43:16.783Z,14.30
2018-04-10T08:45:44.282Z,14.60
2018-04-10T08:48:11.825Z,14.80
2018-04-10T08:50:40.101Z,15.10
2018-04-10T08:53:08.397Z,15.20
2018-04-10T08:55:35.895Z,15.10
2018-04-10T08:58:03.410Z,15.10
2018-04-10T09:00:30.908Z,15.10
2018-04-10T09:02:58.426Z,15.30
2018-04-10T09:05:26.720Z,15.30
2018-04-10T09:07:54.236Z,15.20
2018-04-10T09:10:21.757Z,15.20
2018-04-10T09:12:49.262Z,15.40
2018-04-10T09:15:16.793Z,15.40
2018-04-10T09:17:44.302Z,15.40
2018-04-10T09:20:11.859Z,15.40
2018-04-10T09:22:40.138Z,15.60
2018-04-10T09:25:08.418Z,15.70
2018-04-10T09:27:36.767Z,15.90
2018-04-10T09:30:05.121Z,15.80
2018-04-10T09:32:32.637Z,16.00
2018-04-10T09:35:00.901Z,16.30
2018-04-10T09:37:29.191Z,15.90
2018-04-10T09:39:57.453Z,15.90
2018-04-10T09:42:24.965Z,15.80
2018-04-10T09:44:52.457Z,15.90
2018-04-10T09:47:19.959Z,16.10
2018-04-10T09:49:47.477Z,16.10
2018-04-10T09:52:15.765Z,16.20
2018-04-10T09:54:43.290Z,16.10
2018-04-10T09:57:11.955Z,16.00
2018-04-10T09:59:39.481Z,16.10
2018-04-10T10:02:07.758Z,16.60
2018-04-10T10:04:36.023Z,16.30
2018-04-10T10:07:03.533Z,16.20
2018-04-10T10:09:31.035Z,16.30
2018-04-10T10:11:58.569Z,16.20
2018-04-10T10:14:26.076Z,16.10
2018-04-10T10:16:54.370Z,16.60
2018-04-10T10:19:21.885Z,16.50
2018-04-10T10:21:49.425Z,16.70
2018-04-10T10:24:16.924Z,16.70
2018-04-10T10:26:44.434Z,16.80
2018-04-10T10:29:11.971Z,16.90
2018-04-10T10:31:39.475Z,16.90
2018-04-10T10:34:07.001Z,16.90
2018-04-10T10:36:34.524Z,16.90
2018-04-10T10:39:02.830Z,16.80
2018-04-10T10:41:30.323Z,16.70
2018-04-10T10:43:58.187Z,16.90
2018-04-10T10:46:25.692Z,16.80
2018-04-10T10:48:53.950Z,16.90
2018-04-10T10:51:21.469Z,16.80
2018-04-10T10:53:48.987Z,17.00
2018-04-10T10:56:17.279Z,17.10
2018-04-10T10:58:44.775Z,17.00
2018-04-10T11:01:12.298Z,17.20
2018-04-10T11:03:39.806Z,17.20
2018-04-10T11:06:07.325Z,17.40
2018-04-10T11:08:34.821Z,17.60
2018-04-10T11:11:02.338Z,17.40
2018-04-10T11:13:30.605Z,17.50
2018-04-10T11:15:58.877Z,17.70
2018-04-10T11:18:27.166Z,17.70
2018-04-10T11:20:54.663Z,17.60
2018-04-10T11:23:22.180Z,17.70
2018-04-10T11:25:50.512Z,17.60
2018-04-10T11:28:18.034Z,17.60
2018-04-10T11:30:45.585Z,17.60
2018-04-10T11:33:13.857Z,17.60
2018-04-10T11:35:42.120Z,17.70
2018-04-10T11:38:09.646Z,17.60
2018-04-10T11:40:37.146Z,17.80
2018-04-10T11:43:05.413Z,17.70
2018-04-10T11:45:33.408Z,17.60
2018-04-10T11:48:01.674Z,17.60
2018-04-10T11:50:29.963Z,17.70
2018-04-10T11:52:58.438Z,17.60
2018-04-10T11:55:26.730Z,17.70
2018-04-10T11:57:54.970Z,17.60
2018-04-10T12:00:22.493Z,17.60
2018-04-10T12:02:49.985Z,17.90
2018-04-10T12:05:17.541Z,18.00
2018-04-10T12:07:45.050Z,18.30
2018-04-10T12:10:12.557Z,18.40
2018-04-10T12:12:40.070Z,18.40
2018-04-10T12:15:07.582Z,18.40
2018-04-10T12:17:35.142Z,18.50
2018-04-10T12:20:02.653Z,18.30
2018-04-10T12:22:30.170Z,18.50
2018-04-10T12:24:57.701Z,18.60
2018-04-10T12:27:25.239Z,18.50
2018-04-10T12:29:52.726Z,18.60
2018-04-10T12:32:20.241Z,18.60
2018-04-10T12:34:47.729Z,18.30
2018-04-10T12:37:15.246Z,18.30
2018-04-10T12:39:43.505Z,18.70
2018-04-10T12:42:11.011Z,18.60
2018-04-10T12:44:38.541Z,18.80
2018-04-10T12:47:06.803Z,18.90
2018-04-10T12:49:35.105Z,18.90
2018-04-10T12:52:03.373Z,19.10
2018-04-10T12:54:31.649Z,19.00
2018-04-10T12:56:59.173Z,18.90
2018-04-10T12:59:26.708Z,18.80
2018-04-10T13:01:54.259Z,18.70
2018-04-10T13:04:21.814Z,18.70
2018-04-10T13:06:49.309Z,18.80
2018-04-10T13:09:17.018Z,19.00
2018-04-10T13:11:44.547Z,19.20
2018-04-10T13:14:12.041Z,19.30
2018-04-10T13:16:39.564Z,19.00
2018-04-10T13:19:07.067Z,19.00
2018-04-10T13:21:34.589Z,18.90
2018-04-10T13:24:02.079Z,18.70
2018-04-10T13:26:30.354Z,18.80
2018-04-10T13:28:58.620Z,18.50
2018-04-10T13:31:26.899Z,18.50
2018-04-10T13:33:55.187Z,19.00
2018-04-10T13:36:23.449Z,19.20
2018-04-10T13:38:51.737Z,19.40
2018-04-10T13:41:19.241Z,19.20
2018-04-10T13:43:46.769Z,19.50
2018-04-10T13:46:14.258Z,19.60
2018-04-10T13:48:41.773Z,19.60
2018-04-10T13:51:10.030Z,20.00
2018-04-10T13:53:37.547Z,19.90
2018-04-10T13:56:05.077Z,19.50
2018-04-10T13:58:32.574Z,19.40
2018-04-10T14:01:00.117Z,19.30
2018-04-10T14:03:27.675Z,19.50
2018-04-10T14:05:55.192Z,19.40
2018-04-10T14:08:22.684Z,19.20
2018-04-10T14:10:50.193Z,19.10
2018-04-10T14:13:17.693Z,19.20
2018-04-10T14:15:47.845Z,19.10
2018-04-10T14:18:15.348Z,19.00
2018-04-10T14:20:42.854Z,19.00
2018-04-10T14:23:10.372Z,19.10
2018-04-10T14:25:37.874Z,19.30
2018-04-10T14:28:05.412Z,19.30
2018-04-10T14:30:32.913Z,19.20
2018-04-10T14:33:00.421Z,19.10
2018-04-10T14:35:28.683Z,18.80
2018-04-10T14:37:56.173Z,18.70
2018-04-10T14:40:23.697Z,18.70
2018-04-10T14:42:51.191Z,18.40
2018-04-10T14:45:18.700Z,18.30
2018-04-10T14:47:46.234Z,18.20
2018-04-10T14:50:13.765Z,17.80
2018-04-10T14:52:41.278Z,17.70
2018-04-10T14:55:08.792Z,17.60
2018-04-10T14:57:36.300Z,17.40
2018-04-10T15:00:03.837Z,17.30
2018-04-10T15:02:31.343Z,17.30
2018-04-10T15:04:59.611Z,17.30
2018-04-10T15:07:27.137Z,17.20
2018-04-10T15:09:54.630Z,17.20
2018-04-10T15:12:22.146Z,16.30
2018-04-10T15:14:49.641Z,15.70
2018-04-10T15:17:17.160Z,15.30
2018-04-10T15:19:44.673Z,15.00
2018-04-10T15:22:12.967Z,14.90
2018-04-10T15:24:40.486Z,14.80
2018-04-10T15:27:08.033Z,14.70
2018-04-10T15:29:35.539Z,14.20
2018-04-10T15:32:03.814Z,13.80
2018-04-10T15:34:32.101Z,13.70
2018-04-10T15:36:59.647Z,13.60
2018-04-10T15:39:27.936Z,12.90
2018-04-10T15:41:56.209Z,12.80
2018-04-10T15:44:24.490Z,12.80
2018-04-10T15:46:52.752Z,12.60
2018-04-10T15:49:21.046Z,12.60
2018-04-10T15:51:49.325Z,12.50
2018-04-10T15:54:17.602Z,12.50
2018-04-10T15:56:45.865Z,12.40
2018-04-10T15:59:14.126Z,12.50
2018-04-10T16:01:41.643Z,12.40
2018-04-10T16:04:09.142Z,12.30
2018-04-10T16:06:36.657Z,12.00
2018-04-10T16:09:04.370Z,11.80
2018-04-10T16:11:31.902Z,11.70
2018-04-10T16:13:59.399Z,11.60
2018-04-10T16:16:26.914Z,11.60
2018-04-10T16:18:54.408Z,11.30
2018-04-10T16:21:21.926Z,11.30
2018-04-10T16:23:49.425Z,11.30
2018-04-10T16:26:16.922Z,11.30
2018-04-10T16:28:44.441Z,11.10
2018-04-10T16:31:11.927Z,11.00
2018-04-10T16:33:39.449Z,10.90
2018-04-10T16:36:06.946Z,10.70
2018-04-10T16:38:35.219Z,10.40
2018-04-10T16:41:03.493Z,10.40
2018-04-10T16:43:31.770Z,10.40
2018-04-10T16:46:00.042Z,10.40
2018-04-10T16:48:28.330Z,10.30
2018-04-10T16:50:56.585Z,10.20
2018-04-10T16:53:24.084Z,10.10
2018-04-10T16:55:51.609Z,10.00
2018-04-10T16:58:19.093Z,9.90
2018-04-10T17:00:46.606Z,9.90
2018-04-10T17:03:14.104Z,10.00
2018-04-10T17:05:42.381Z,9.70
2018-04-10T17:08:11.092Z,9.60
2018-04-10T17:10:38.619Z,9.50
2018-04-10T17:13:06.105Z,9.40
2018-04-10T17:15:34.314Z,9.40
2018-04-10T17:18:01.818Z,9.40
2018-04-10T17:20:30.086Z,9.30
2018-04-10T17:22:58.371Z,9.10
2018-04-10T17:25:26.672Z,9.10
2018-04-10T17:27:54.177Z,9.00
2018-04-10T17:30:21.677Z,8.90
2018-04-10T17:32:50.001Z,8.80
2018-04-10T17:35:17.471Z,8.70
2018-04-10T17:37:45.029Z,8.80
2018-04-10T17:40:12.530Z,8.80
2018-04-10T17:42:40.818Z,9.10
2018-04-10T17:45:09.064Z,9.10
2018-04-10T17:47:36.553Z,9.00
2018-04-10T17:50:04.099Z,9.30
2018-04-10T17:52:32.375Z,9.40
2018-04-10T17:54:59.940Z,9.30
2018-04-10T17:57:28.190Z,9.40
2018-04-10T17:59:55.710Z,9.30
2018-04-10T18:02:23.193Z,9.40
2018-04-10T18:04:50.712Z,9.30
2018-04-10T18:07:18.854Z,9.30
2018-04-10T18:09:47.213Z,9.40
2018-04-10T18:12:14.739Z,9.30
2018-04-10T18:14:42.256Z,9.30
2018-04-10T18:17:10.549Z,9.30
2018-04-10T18:19:38.805Z,9.40
2018-04-10T18:22:06.310Z,9.30
2018-04-10T18:24:33.803Z,9.40
2018-04-10T18:27:01.324Z,9.40
2018-04-10T18:29:28.832Z,9.40
2018-04-10T18:31:56.361Z,9.20
2018-04-10T18:34:23.862Z,9.30
2018-04-10T18:36:51.398Z,9.20
2018-04-10T18:39:18.887Z,9.20
2018-04-10T18:41:47.150Z,9.00
2018-04-10T18:44:14.743Z,9.00
2018-04-10T18:46:43.003Z,9.00
2018-04-10T18:49:11.285Z,9.10
2018-04-10T18:51:39.564Z,9.10
2018-04-10T18:54:07.150Z,9.00
2018-04-10T18:56:34.654Z,9.00
2018-04-10T18:59:02.173Z,9.00
2018-04-10T19:01:29.719Z,8.90
2018-04-10T19:03:58.035Z,9.10
2018-04-10T19:06:25.512Z,9.00
2018-04-10T19:08:53.010Z,9.10
2018-04-10T19:11:21.286Z,9.10
2018-04-10T19:13:49.542Z,9.20
2018-04-10T19:16:17.370Z,9.20
2018-04-10T19:18:44.863Z,9.20
2018-04-10T19:21:12.418Z,9.30
2018-04-10T19:23:39.928Z,9.30
2018-04-10T19:26:07.412Z,9.20
2018-04-10T19:28:34.946Z,9.20
2018-04-10T19:31:02.450Z,9.30
2018-04-10T19:33:29.974Z,9.20
2018-04-10T19:35:57.518Z,9.00
2018-04-10T19:38:25.078Z,9.00
2018-04-10T19:40:52.597Z,9.00
2018-04-10T19:43:20.123Z,9.00
2018-04-10T19:45:47.627Z,8.80
2018-04-10T19:48:15.109Z,8.90
2018-04-10T19:50:42.621Z,8.80
2018-04-10T19:53:10.116Z,8.90
2018-04-10T19:55:38.396Z,8.80
2018-04-10T19:58:05.905Z,8.70
2018-04-10T20:00:33.435Z,8.90
2018-04-10T20:03:00.933Z,9.00
2018-04-10T20:05:28.450Z,9.10
2018-04-10T20:07:55.960Z,9.10
2018-04-10T20:10:24.656Z,9.00
2018-04-10T20:12:52.180Z,9.10
2018-04-10T20:15:19.692Z,9.10
2018-04-10T20:17:47.980Z,9.10
2018-04-10T20:20:15.474Z,9.00
2018-04-10T20:22:42.985Z,9.10
2018-04-10T20:25:11.242Z,9.20
2018-04-10T20:27:38.777Z,9.10
2018-04-10T20:30:06.269Z,9.30
2018-04-10T20:32:33.798Z,9.30
2018-04-10T20:35:01.289Z,9.30
2018-04-10T20:37:28.797Z,9.30
2018-04-10T20:39:56.302Z,9.20
2018-04-10T20:42:23.794Z,9.20
2018-04-10T20:44:52.087Z,9.10
2018-04-10T20:47:19.657Z,9.00
2018-04-10T20:49:47.465Z,9.00
2018-04-10T20:52:14.961Z,9.00
2018-04-10T20:54:43.239Z,8.90
2018-04-10T20:57:10.726Z,8.80
2018-04-10T20:59:38.214Z,8.90
2018-04-10T21:02:05.722Z,8.90
2018-04-10T21:04:33.226Z,8.90
2018-04-10T21:07:00.741Z,9.00
2018-04-10T21:09:28.242Z,9.00
2018-04-10T21:11:55.760Z,9.00
2018-04-10T21:14:23.261Z,9.00
2018-04-10T21:16:50.777Z,9.00
2018-04-10T21:19:18.264Z,9.00
2018-04-10T21:21:45.780Z,9.00
2018-04-10T21:24:14.062Z,9.00
2018-04-10T21:26:42.334Z,9.10
2018-04-10T21:29:10.605Z,9.00
2018-04-10T21:31:38.912Z,9.00
2018-04-10T21:34:07.204Z,8.90
2018-04-10T21:36:34.709Z,8.80
2018-04-10T21:39:02.283Z,8.90
2018-04-10T21:41:30.549Z,8.90
2018-04-10T21:43:58.044Z,8.80
2018-04-10T21:46:25.566Z,9.00
2018-04-10T21:48:53.060Z,8.90
2018-04-10T21:51:20.570Z,9.00
2018-04-10T21:53:48.057Z,8.90
2018-04-10T21:56:15.593Z,8.80
2018-04-10T21:58:43.085Z,8.80
2018-04-10T22:01:11.357Z,8.80
2018-04-10T22:03:38.892Z,8.70
2018-04-10T22:06:06.389Z,8.80
2018-04-10T22:08:33.898Z,8.70
2018-04-10T22:11:01.389Z,8.70
2018-04-10T22:13:29.684Z,8.70
2018-04-10T22:15:57.198Z,8.60
2018-04-10T22:18:24.710Z,8.80
2018-04-10T22:20:52.198Z,8.90
2018-04-10T22:23:19.713Z,8.70
2018-04-10T22:25:47.986Z,8.60
2018-04-10T22:28:16.257Z,8.70
2018-04-10T22:30:43.763Z,8.60
2018-04-10T22:33:11.219Z,8.70
2018-04-10T22:35:38.733Z,8.50
2018-04-10T22:38:06.234Z,8.60
2018-04-10T22:40:33.766Z,8.70
2018-04-10T22:43:01.269Z,8.70
2018-04-10T22:45:28.794Z,8.70
2018-04-10T22:47:56.286Z,8.70
2018-04-10T22:50:23.788Z,8.70
2018-04-10T22:52:51.306Z,8.70
2018-04-10T22:55:18.820Z,8.70
2018-04-10T22:57:46.342Z,8.70
2018-04-10T23:00:16.361Z,8.60
2018-04-10T23:02:44.646Z,8.60
2018-04-10T23:05:12.904Z,8.60
2018-04-10T23:07:40.417Z,8.50
2018-04-10T23:10:07.914Z,8.50
2018-04-10T23:12:35.406Z,8.50
2018-04-10T23:15:02.918Z,8.40
2018-04-10T23:17:30.418Z,8.30
2018-04-10T23:19:57.973Z,8.40
2018-04-10T23:22:25.469Z,8.50
2018-04-10T23:24:53.757Z,8.50
2018-04-10T23:27:21.251Z,8.40
2018-04-10T23:29:48.739Z,8.60
2018-04-10T23:32:16.247Z,8.60
2018-04-10T23:34:43.761Z,8.50
2018-04-10T23:37:11.256Z,8.50
2018-04-10T23:39:38.750Z,8.40
2018-04-10T23:42:06.262Z,8.40
2018-04-10T23:44:34.521Z,8.30
2018-04-10T23:47:02.027Z,8.20
2018-04-10T23:49:29.510Z,8.30
2018-04-10T23:51:57.022Z,8.30
2018-04-10T23:54:25.292Z,8.30
2018-04-10T23:56:53.587Z,8.30
2018-04-10T23:59:21.114Z,8.30
